< < Back
Terminal Aerodrome Forecast


Current Version              Previous Versions:   1  2  3  4  5  6  7  8  9  

Terminal Aerodrome Forecast

201
FTUS42 KCAE 021432 AAA
TAFAGS
TAF AMD
KAGS 021432Z 0215/0312 VRB03KT P6SM SCT250
     FM021700 10005KT P6SM SCT050 SCT250
     FM030000 00000KT P6SM BKN250=

Latest METAR

756
SAUS70 KWBC 021456
MTRAGS
METAR KAGS 021453Z 00000KT 10SM CLR 29/23 A3009 RMK AO2 SLP188 T02940228
58006


USA.gov is the U.S. government's official web portal to all federal, state and local government web resources and services.